NCAR-RAP Real-Time Weather Data

Output produced by METARs form (29 May 2017  09:46 UTC)
found at http://weather.rap.ucar.edu/surface/
 
Conditions at: KSDF observed 29 May 2017  08:56 UTC
Temperature: 18.9°C (66°F)
Dewpoint: 17.8°C (64°F) [RH = 93%]
Pressure (altimeter): 29.90 inches Hg (1012.6 mb)
[Sea-level pressure: 1012.3 mb]
Winds: from the SSW (200 degrees) at 5 MPH (4 knots; 2.1 m/s)
Visibility: 7 miles (11 km)
Ceiling: 25000 feet AGL
Clouds: overcast cloud deck at 25000 feet AGL
Present Weather: no significant weather observed at this time
KSDF 290856Z 20004KT 7SM OVC250 19/18 A2990 RMK AO2 SLP123 T01890178 53009